Time;durP1;ratioP1;P1;durP2;ratioP2;P2;SDS_P1;SDS_P2;PMS_P1;PMS_P2;Temp;Humidity;BMP_temperature;BMP_pressure;BME280_temperature;BME280_humidity;BME280_pressure;Samples;Min_cycle;Max_cycle;Signal;HPM_P1;HPM_P2
2023/06/15 00:01:05;;;;;;;;;;;17.70;84.00;;;;;;5057672;28;20002;-74
2023/06/15 00:03:30;;;;;;;;;;;17.70;84.00;;;;;;5060627;28;19927;-73
2023/06/15 00:05:56;;;;;;;;;;;17.70;84.50;;;;;;5055801;28;19909;-76
2023/06/15 00:08:22;;;;;;;;;;;17.60;84.90;;;;;;5058043;28;19909;-76
2023/06/15 00:10:47;;;;;;;;;;;17.60;85.50;;;;;;5054136;28;19909;-74
2023/06/15 00:13:14;;;;;;;;;;;17.60;85.50;;;;;;5062410;28;20681;-75
2023/06/15 00:15:39;;;;;;;;;;;17.50;86.40;;;;;;5036638;28;19938;-75
2023/06/15 00:18:05;;;;;;;;;;;17.60;86.60;;;;;;5059073;28;20645;-75
2023/06/15 00:20:31;;;;;;;;;;;17.50;87.50;;;;;;5054657;28;20440;-74
2023/06/15 00:22:58;;;;;;;;;;;17.40;87.90;;;;;;5047823;28;19952;-75
2023/06/15 00:25:24;;;;;;;;;;;17.40;88.90;;;;;;5031398;28;20042;-75
2023/06/15 00:27:49;;;;;;;;;;;17.30;89.20;;;;;;5057649;28;20669;-74
2023/06/15 00:30:15;;;;;;;;;;;17.30;90.00;;;;;;5053209;28;19913;-75
2023/06/15 00:32:41;;;;;;;;;;;17.30;90.40;;;;;;5059961;28;19913;-76
2023/06/15 00:35:07;;;;;;;;;;;17.40;90.60;;;;;;5047492;28;19912;-75
2023/06/15 00:37:33;;;;;;;;;;;17.30;91.20;;;;;;5052534;28;19915;-75
2023/06/15 00:39:59;;;;;;;;;;;17.20;91.60;;;;;;5040506;28;20794;-75
2023/06/15 00:42:24;;;;;;;;;;;17.20;92.20;;;;;;5054484;28;19919;-75
2023/06/15 00:44:50;;;;;;;;;;;17.20;92.30;;;;;;5054182;28;19979;-75
2023/06/15 00:47:20;;;;;;;;;;;17.30;92.40;;;;;;5058913;28;19919;-74
2023/06/15 00:49:46;;;;;;;;;;;17.30;92.70;;;;;;5059619;28;20567;-75
2023/06/15 00:52:12;;;;;;;;;;;17.10;93.30;;;;;;5053879;28;19966;-75
2023/06/15 00:54:40;;;;;;;;;;;17.00;94.10;;;;;;5058944;28;19964;-74
2023/06/15 00:57:12;;;;;;;;;;;17.10;94.20;;;;;;5051830;28;19912;-75
2023/06/15 00:59:38;;;;;;;;;;;17.10;94.60;;;;;;5050777;28;19920;-75
2023/06/15 01:02:04;;;;;;;;;;;17.00;95.20;;;;;;5053595;28;19908;-75
2023/06/15 01:04:29;;;;;;;;;;;16.90;95.40;;;;;;5053625;28;19931;-75
2023/06/15 01:07:01;;;;;;;;;;;17.00;95.60;;;;;;5055123;28;19917;-75
2023/06/15 01:09:32;;;;;;;;;;;17.00;95.80;;;;;;5047841;28;19923;-75
2023/06/15 01:11:58;;;;;;;;;;;17.00;96.30;;;;;;5056532;28;19912;-74
2023/06/15 01:14:25;;;;;;;;;;;17.00;96.50;;;;;;5056465;28;19915;-74
2023/06/15 01:16:52;;;;;;;;;;;17.00;97.10;;;;;;5059280;28;19921;-74
2023/06/15 01:19:37;;;;;;;;;;;17.00;97.40;;;;;;5057903;28;19970;-75
2023/06/15 01:22:19;;;;;;;;;;;17.10;97.20;;;;;;5055414;28;19912;-74
2023/06/15 01:24:50;;;;;;;;;;;17.20;97.50;;;;;;5051169;28;19916;-74
2023/06/15 01:27:18;;;;;;;;;;;17.40;97.20;;;;;;5056422;28;20382;-75
2023/06/15 01:29:44;;;;;;;;;;;17.40;97.30;;;;;;5056910;28;20375;-75
2023/06/15 01:32:10;;;;;;;;;;;17.40;97.40;;;;;;5056875;28;19919;-75
2023/06/15 01:34:36;;;;;;;;;;;17.30;97.70;;;;;;5057643;28;19959;-75
2023/06/15 01:37:01;;;;;;;;;;;17.40;97.80;;;;;;5051766;28;20625;-75
2023/06/15 01:39:27;;;;;;;;;;;17.60;97.50;;;;;;5058276;28;20015;-75
2023/06/15 01:41:54;;;;;;;;;;;17.70;97.20;;;;;;5048045;28;19905;-74
2023/06/15 01:44:19;;;;;;;;;;;17.70;96.90;;;;;;5051686;28;19970;-74
2023/06/15 01:46:45;;;;;;;;;;;17.80;96.80;;;;;;5055764;28;19912;-75
2023/06/15 01:49:11;;;;;;;;;;;17.70;97.00;;;;;;5053793;28;19970;-74
2023/06/15 01:51:36;;;;;;;;;;;17.80;96.90;;;;;;5031284;28;19920;-75
2023/06/15 01:54:02;;;;;;;;;;;17.70;96.80;;;;;;5049650;28;20451;-75
2023/06/15 01:56:28;;;;;;;;;;;17.70;97.40;;;;;;5054501;28;19908;-75
2023/06/15 01:58:53;;;;;;;;;;;17.80;97.10;;;;;;5051066;28;19917;-74
2023/06/15 02:01:19;;;;;;;;;;;17.80;97.00;;;;;;5050809;28;19915;-74
2023/06/15 02:03:44;;;;;;;;;;;17.90;97.10;;;;;;5048720;28;19920;-75
2023/06/15 02:06:10;;;;;;;;;;;18.00;96.70;;;;;;5061573;28;20094;-76
2023/06/15 02:08:36;;;;;;;;;;;17.90;96.80;;;;;;5056086;28;19908;-75
2023/06/15 02:11:01;;;;;;;;;;;18.00;96.80;;;;;;5052910;28;19955;-75
2023/06/15 02:13:27;;;;;;;;;;;18.00;96.70;;;;;;5045132;28;21176;-76
2023/06/15 02:15:52;;;;;;;;;;;17.90;96.80;;;;;;5052268;28;20332;-74
2023/06/15 02:18:18;;;;;;;;;;;17.90;97.00;;;;;;5050272;28;19912;-73
2023/06/15 02:20:44;;;;;;;;;;;17.90;97.00;;;;;;5052430;28;19913;-74
2023/06/15 02:23:10;;;;;;;;;;;17.80;97.00;;;;;;5043484;28;20643;-75
2023/06/15 02:25:36;;;;;;;;;;;18.00;96.80;;;;;;5044013;28;19913;-75
2023/06/15 02:28:01;;;;;;;;;;;18.00;96.60;;;;;;5057645;28;19913;-74
2023/06/15 02:30:27;;;;;;;;;;;17.90;97.10;;;;;;5048050;28;19995;-76
2023/06/15 02:32:53;;;;;;;;;;;18.00;96.90;;;;;;5049201;28;20003;-75
2023/06/15 02:35:19;;;;;;;;;;;18.00;96.50;;;;;;5051549;28;19916;-75
2023/06/15 02:37:45;;;;;;;;;;;18.00;96.60;;;;;;5048132;28;19916;-75
2023/06/15 02:40:10;;;;;;;;;;;18.10;96.50;;;;;;5043796;28;19916;-76
2023/06/15 02:42:37;;;;;;;;;;;18.10;96.50;;;;;;5055508;28;19921;-75
2023/06/15 02:45:03;;;;;;;;;;;18.00;96.60;;;;;;5057338;28;20004;-75
2023/06/15 02:47:31;;;;;;;;;;;17.80;96.90;;;;;;5055257;28;19921;-74
2023/06/15 02:49:59;;;;;;;;;;;17.70;97.10;;;;;;5044925;28;20002;-76
2023/06/15 02:52:25;;;;;;;;;;;17.70;97.20;;;;;;5060089;28;19913;-75
2023/06/15 02:54:50;;;;;;;;;;;17.70;97.20;;;;;;5054855;28;19919;-74
2023/06/15 02:57:16;;;;;;;;;;;17.90;97.00;;;;;;5051965;28;19913;-75
2023/06/15 02:59:42;;;;;;;;;;;17.80;97.00;;;;;;5052147;28;19952;-75
2023/06/15 03:02:08;;;;;;;;;;;17.80;97.00;;;;;;5056091;28;20074;-75
2023/06/15 03:04:37;;;;;;;;;;;17.80;97.10;;;;;;5026327;28;19995;-76
2023/06/15 03:07:03;;;;;;;;;;;17.90;96.90;;;;;;5043881;28;20709;-75
2023/06/15 03:09:29;;;;;;;;;;;17.80;97.10;;;;;;5046637;28;19921;-75
2023/06/15 03:11:54;;;;;;;;;;;17.70;97.00;;;;;;5052977;28;20642;-74
2023/06/15 03:14:20;;;;;;;;;;;17.70;97.40;;;;;;5043334;28;20662;-74
2023/06/15 03:16:47;;;;;;;;;;;17.80;97.30;;;;;;5051520;28;19912;-75
2023/06/15 03:19:15;;;;;;;;;;;17.90;97.20;;;;;;5056860;28;19914;-75
2023/06/15 03:21:41;;;;;;;;;;;17.90;97.10;;;;;;5050592;28;19968;-74
2023/06/15 03:24:08;;;;;;;;;;;17.70;97.40;;;;;;5045251;28;19982;-74
2023/06/15 03:26:37;;;;;;;;;;;17.70;97.60;;;;;;5056807;28;19942;-74
2023/06/15 03:29:03;;;;;;;;;;;17.70;97.40;;;;;;5047915;28;19920;-75
2023/06/15 03:31:28;;;;;;;;;;;17.70;97.30;;;;;;5056442;28;19912;-74
2023/06/15 03:33:57;;;;;;;;;;;17.70;97.40;;;;;;5053263;28;19947;-75
2023/06/15 03:36:25;;;;;;;;;;;17.50;97.40;;;;;;5056164;28;19912;-75
2023/06/15 03:38:50;;;;;;;;;;;17.50;97.60;;;;;;5049868;28;19913;-75
2023/06/15 03:41:16;;;;;;;;;;;17.60;97.60;;;;;;5058464;28;19920;-76
2023/06/15 03:43:41;;;;;;;;;;;17.60;97.30;;;;;;5052517;28;19927;-74
2023/06/15 03:46:07;;;;;;;;;;;17.60;97.20;;;;;;5048600;28;19913;-75
2023/06/15 03:48:33;;;;;;;;;;;17.40;97.40;;;;;;5051137;28;19905;-74
2023/06/15 03:50:59;;;;;;;;;;;17.50;97.40;;;;;;5055889;28;20462;-74
2023/06/15 03:53:24;;;;;;;;;;;17.50;97.40;;;;;;5051955;28;20395;-75
2023/06/15 03:55:50;;;;;;;;;;;17.50;97.10;;;;;;5047239;28;19924;-76
2023/06/15 03:58:17;;;;;;;;;;;17.60;97.10;;;;;;5061586;28;19919;-75
2023/06/15 04:00:43;;;;;;;;;;;17.60;96.60;;;;;;5040390;28;19911;-74
2023/06/15 04:03:09;;;;;;;;;;;17.60;96.70;;;;;;5052590;28;20297;-75
2023/06/15 04:05:34;;;;;;;;;;;17.70;96.70;;;;;;5033215;28;19951;-74
2023/06/15 04:08:01;;;;;;;;;;;17.60;96.50;;;;;;5058259;28;19912;-74
2023/06/15 04:10:27;;;;;;;;;;;17.50;96.50;;;;;;5064365;28;19952;-75
2023/06/15 04:12:53;;;;;;;;;;;17.70;96.70;;;;;;5063618;28;20373;-75
2023/06/15 04:15:18;;;;;;;;;;;17.70;96.50;;;;;;5047112;28;20390;-75
2023/06/15 04:17:44;;;;;;;;;;;17.70;96.70;;;;;;5058019;28;19904;-75
2023/06/15 04:20:10;;;;;;;;;;;17.70;96.60;;;;;;5047387;28;19962;-74
2023/06/15 04:22:35;;;;;;;;;;;17.80;96.60;;;;;;5032079;28;20340;-76
2023/06/15 04:25:01;;;;;;;;;;;17.80;96.50;;;;;;5047661;28;20363;-77
2023/06/15 04:27:27;;;;;;;;;;;17.80;96.50;;;;;;5045702;28;20043;-77
2023/06/15 04:29:53;;;;;;;;;;;17.80;96.50;;;;;;5035229;28;19982;-75
2023/06/15 04:32:19;;;;;;;;;;;17.70;96.70;;;;;;5039017;28;20365;-75
2023/06/15 04:34:45;;;;;;;;;;;17.70;96.70;;;;;;5054981;28;19919;-76
2023/06/15 04:37:12;;;;;;;;;;;17.80;96.50;;;;;;5047612;28;19947;-77
2023/06/15 04:39:38;;;;;;;;;;;17.80;96.30;;;;;;5057984;28;19918;-76
2023/06/15 04:42:04;;;;;;;;;;;17.80;96.40;;;;;;5051169;28;20211;-76
2023/06/15 04:44:29;;;;;;;;;;;17.80;96.20;;;;;;5042551;28;19917;-75
2023/06/15 04:46:55;;;;;;;;;;;17.80;96.30;;;;;;5050524;28;19912;-75
2023/06/15 04:49:21;;;;;;;;;;;17.80;96.40;;;;;;5064389;28;19915;-75
2023/06/15 04:51:48;;;;;;;;;;;17.80;96.30;;;;;;5050302;28;19909;-77
2023/06/15 04:54:13;;;;;;;;;;;17.90;96.30;;;;;;5045972;28;19927;-76
2023/06/15 04:56:39;;;;;;;;;;;17.90;96.30;;;;;;5032582;28;19921;-76
2023/06/15 04:59:05;;;;;;;;;;;17.80;96.40;;;;;;5054778;28;20371;-76
2023/06/15 05:01:30;;;;;;;;;;;17.80;96.70;;;;;;5060192;28;21346;-75
2023/06/15 05:03:58;;;;;;;;;;;17.90;96.60;;;;;;5054091;28;19924;-76
2023/06/15 05:06:24;;;;;;;;;;;18.00;96.30;;;;;;5052670;28;19909;-76
2023/06/15 05:08:50;;;;;;;;;;;18.10;96.30;;;;;;5055861;28;20410;-76
2023/06/15 05:11:15;;;;;;;;;;;18.00;96.40;;;;;;5059126;28;19912;-75
2023/06/15 05:13:41;;;;;;;;;;;18.00;96.60;;;;;;5049663;28;20726;-76
2023/06/15 05:16:06;;;;;;;;;;;18.00;96.50;;;;;;5055953;28;19917;-76
2023/06/15 05:18:32;;;;;;;;;;;18.10;96.20;;;;;;5040540;28;19996;-75
2023/06/15 05:20:58;;;;;;;;;;;18.20;96.10;;;;;;5053778;28;20391;-76
2023/06/15 05:23:23;;;;;;;;;;;18.20;95.90;;;;;;5056573;28;19920;-75
2023/06/15 05:25:49;;;;;;;;;;;18.20;96.10;;;;;;5059705;28;19920;-75
2023/06/15 05:28:15;;;;;;;;;;;18.30;96.00;;;;;;5055648;28;20592;-78
2023/06/15 05:30:41;;;;;;;;;;;18.30;95.70;;;;;;5035597;28;20412;-77
2023/06/15 05:33:06;;;;;;;;;;;18.20;95.60;;;;;;5053531;28;19993;-76
2023/06/15 05:35:32;;;;;;;;;;;18.20;95.90;;;;;;5053702;28;20256;-76
2023/06/15 05:37:57;;;;;;;;;;;18.30;95.90;;;;;;5048561;28;19912;-76
2023/06/15 05:40:23;;;;;;;;;;;18.30;95.90;;;;;;5046386;28;19913;-75
2023/06/15 05:42:49;;;;;;;;;;;18.30;95.50;;;;;;5053406;28;20370;-74
2023/06/15 05:45:14;;;;;;;;;;;18.30;95.70;;;;;;5052374;28;19912;-74
2023/06/15 05:47:40;;;;;;;;;;;18.40;95.50;;;;;;5049383;28;19917;-75
2023/06/15 05:50:06;;;;;;;;;;;18.40;94.90;;;;;;5051354;28;20438;-74
2023/06/15 05:52:31;;;;;;;;;;;18.40;95.20;;;;;;5051160;28;19920;-75
2023/06/15 05:54:57;;;;;;;;;;;18.30;95.40;;;;;;5050756;28;20358;-74
2023/06/15 05:57:23;;;;;;;;;;;18.40;95.40;;;;;;5050131;28;20078;-73
2023/06/15 05:59:48;;;;;;;;;;;18.50;95.20;;;;;;5056236;28;19913;-75
2023/06/15 06:02:14;;;;;;;;;;;18.50;94.90;;;;;;5049821;28;20056;-75
2023/06/15 06:04:40;;;;;;;;;;;18.20;95.40;;;;;;5057853;28;19920;-74
2023/06/15 06:07:06;;;;;;;;;;;18.40;95.40;;;;;;5047140;28;19916;-74
2023/06/15 06:09:33;;;;;;;;;;;18.50;95.30;;;;;;5053813;28;19912;-76
2023/06/15 06:11:58;;;;;;;;;;;18.80;94.70;;;;;;5043525;28;19913;-73
2023/06/15 06:14:25;;;;;;;;;;;19.00;94.40;;;;;;5044143;28;20003;-74
2023/06/15 06:16:51;;;;;;;;;;;19.00;94.10;;;;;;5043776;28;19947;-75
2023/06/15 06:19:16;;;;;;;;;;;18.90;94.10;;;;;;5062316;28;20739;-76
2023/06/15 06:21:42;;;;;;;;;;;19.00;94.20;;;;;;5051681;28;20274;-76
2023/06/15 06:24:07;;;;;;;;;;;18.80;94.80;;;;;;5056189;28;20006;-76
2023/06/15 06:26:35;;;;;;;;;;;18.90;94.40;;;;;;5053689;28;20354;-75
2023/06/15 06:29:01;;;;;;;;;;;18.60;94.80;;;;;;5054808;28;20630;-75
2023/06/15 06:31:26;;;;;;;;;;;18.70;94.40;;;;;;5059211;28;19970;-75
2023/06/15 06:33:52;;;;;;;;;;;18.60;94.70;;;;;;5058837;28;20358;-77
2023/06/15 06:36:17;;;;;;;;;;;18.60;94.80;;;;;;5046344;28;19923;-75
2023/06/15 06:38:43;;;;;;;;;;;18.70;95.00;;;;;;5050680;28;20419;-74
2023/06/15 06:41:09;;;;;;;;;;;18.90;94.50;;;;;;5048070;28;19912;-74
2023/06/15 06:43:35;;;;;;;;;;;18.80;94.80;;;;;;5053228;28;19924;-74
2023/06/15 06:46:01;;;;;;;;;;;18.90;94.80;;;;;;5051547;28;20291;-74
2023/06/15 06:48:27;;;;;;;;;;;18.90;94.40;;;;;;5051133;28;19913;-76
2023/06/15 06:50:53;;;;;;;;;;;19.00;94.30;;;;;;5041211;28;19915;-74
2023/06/15 06:53:18;;;;;;;;;;;19.00;94.50;;;;;;5057113;28;20346;-75
2023/06/15 06:55:45;;;;;;;;;;;19.10;94.30;;;;;;5058621;28;20366;-75
2023/06/15 06:58:11;;;;;;;;;;;19.10;94.70;;;;;;5055856;28;19916;-74
2023/06/15 07:00:36;;;;;;;;;;;19.00;94.10;;;;;;5053988;28;20100;-75
2023/06/15 07:03:02;;;;;;;;;;;19.00;94.00;;;;;;5064912;28;19912;-74
2023/06/15 07:05:28;;;;;;;;;;;19.00;93.80;;;;;;5043748;28;20376;-74
2023/06/15 07:07:53;;;;;;;;;;;18.90;94.10;;;;;;5060224;28;19912;-74
2023/06/15 07:10:19;;;;;;;;;;;19.00;93.70;;;;;;5054497;28;19999;-75
2023/06/15 07:12:44;;;;;;;;;;;19.00;93.90;;;;;;5065036;28;19915;-74
2023/06/15 07:15:10;;;;;;;;;;;19.20;93.40;;;;;;5051652;28;19913;-76
2023/06/15 07:17:36;;;;;;;;;;;19.50;93.20;;;;;;5055403;28;19934;-74
2023/06/15 07:20:02;;;;;;;;;;;19.30;93.20;;;;;;5054762;28;19917;-75
2023/06/15 07:22:28;;;;;;;;;;;19.70;92.60;;;;;;5058172;28;19912;-75
2023/06/15 07:24:53;;;;;;;;;;;19.80;92.10;;;;;;5059118;28;20394;-74
2023/06/15 07:27:19;;;;;;;;;;;19.70;92.10;;;;;;5064337;28;19912;-74
2023/06/15 07:29:45;;;;;;;;;;;19.60;92.40;;;;;;5065436;28;19915;-74
2023/06/15 07:32:11;;;;;;;;;;;19.60;92.20;;;;;;5065925;28;19904;-74
2023/06/15 07:34:36;;;;;;;;;;;19.60;92.20;;;;;;5064811;28;20003;-75
2023/06/15 07:37:02;;;;;;;;;;;19.50;91.80;;;;;;5062462;28;19954;-74
2023/06/15 07:39:28;;;;;;;;;;;19.80;91.70;;;;;;5063747;28;19908;-75
2023/06/15 07:41:54;;;;;;;;;;;20.30;91.10;;;;;;5062327;28;19919;-74
2023/06/15 07:44:19;;;;;;;;;;;20.60;90.60;;;;;;5061511;28;19952;-75
2023/06/15 07:46:45;;;;;;;;;;;20.90;90.00;;;;;;5054327;28;19908;-74
2023/06/15 07:49:10;;;;;;;;;;;20.80;90.10;;;;;;5060763;28;19908;-74
2023/06/15 07:51:36;;;;;;;;;;;20.80;90.00;;;;;;5044457;28;19952;-74
2023/06/15 07:54:02;;;;;;;;;;;21.00;89.90;;;;;;5059011;28;19920;-75
2023/06/15 07:56:28;;;;;;;;;;;21.00;88.30;;;;;;5054614;28;20312;-74
2023/06/15 07:58:53;;;;;;;;;;;20.60;88.70;;;;;;5064780;28;20362;-74
2023/06/15 08:01:19;;;;;;;;;;;21.10;87.50;;;;;;5036637;28;20488;-75
2023/06/15 08:03:45;;;;;;;;;;;21.20;85.70;;;;;;5041969;28;20767;-74
2023/06/15 08:06:11;;;;;;;;;;;21.00;85.70;;;;;;5059759;28;19915;-74
2023/06/15 08:08:36;;;;;;;;;;;21.30;85.60;;;;;;5058480;28;19931;-76
2023/06/15 08:11:03;;;;;;;;;;;21.10;85.10;;;;;;5054704;28;19909;-75
2023/06/15 08:13:29;;;;;;;;;;;21.30;84.30;;;;;;5059530;28;20011;-74
2023/06/15 08:15:54;;;;;;;;;;;21.60;83.50;;;;;;5059315;28;20135;-75
2023/06/15 08:18:20;;;;;;;;;;;21.50;83.90;;;;;;5059553;28;19915;-74
2023/06/15 08:20:46;;;;;;;;;;;21.50;82.40;;;;;;5060159;28;19909;-75
2023/06/15 08:23:11;;;;;;;;;;;21.40;84.40;;;;;;5059601;28;19912;-75
2023/06/15 08:25:37;;;;;;;;;;;21.40;84.80;;;;;;5057901;28;20351;-75
2023/06/15 08:28:03;;;;;;;;;;;21.40;85.30;;;;;;5063637;28;19973;-74
2023/06/15 08:30:28;;;;;;;;;;;21.60;83.80;;;;;;5061497;28;19967;-76
2023/06/15 08:32:54;;;;;;;;;;;22.00;83.70;;;;;;5073365;28;19905;-74
2023/06/15 08:35:19;;;;;;;;;;;21.90;83.10;;;;;;5061861;28;19908;-74
2023/06/15 08:37:45;;;;;;;;;;;21.50;83.60;;;;;;5062350;28;20640;-74
2023/06/15 08:40:11;;;;;;;;;;;21.50;84.50;;;;;;5063254;28;19939;-73
2023/06/15 08:42:38;;;;;;;;;;;21.60;82.50;;;;;;5061778;28;19966;-76
2023/06/15 08:45:05;;;;;;;;;;;21.80;81.70;;;;;;5059074;28;19923;-74
2023/06/15 08:47:32;;;;;;;;;;;22.30;81.40;;;;;;5060184;28;19970;-75
2023/06/15 08:49:59;;;;;;;;;;;22.30;83.20;;;;;;5057317;28;20382;-74
2023/06/15 08:52:25;;;;;;;;;;;23.00;79.90;;;;;;5055441;28;20015;-75
2023/06/15 08:54:52;;;;;;;;;;;22.90;78.00;;;;;;5056942;28;19920;-74
2023/06/15 08:57:17;;;;;;;;;;;22.70;78.60;;;;;;5056679;28;20526;-75
2023/06/15 08:59:43;;;;;;;;;;;22.40;80.30;;;;;;5056166;28;19916;-74
2023/06/15 09:02:13;;;;;;;;;;;21.90;82.40;;;;;;5058160;28;20536;-75
2023/06/15 09:04:39;;;;;;;;;;;21.50;83.80;;;;;;5042991;28;19924;-75
2023/06/15 09:07:05;;;;;;;;;;;21.40;84.40;;;;;;5060020;28;19908;-74
2023/06/15 09:09:31;;;;;;;;;;;21.40;84.60;;;;;;5059997;28;19912;-75
2023/06/15 09:11:56;;;;;;;;;;;21.80;83.20;;;;;;5058999;28;19912;-76
2023/06/15 09:14:22;;;;;;;;;;;21.80;82.40;;;;;;5061694;28;19995;-75
2023/06/15 09:16:48;;;;;;;;;;;22.10;82.80;;;;;;5058901;28;20490;-76
2023/06/15 09:19:16;;;;;;;;;;;22.10;82.80;;;;;;5060831;28;20410;-74
2023/06/15 09:21:42;;;;;;;;;;;22.20;81.70;;;;;;5060590;28;19915;-75
2023/06/15 09:24:08;;;;;;;;;;;22.10;80.80;;;;;;5058746;28;19940;-76
2023/06/15 09:26:33;;;;;;;;;;;22.30;81.00;;;;;;5061909;28;19939;-75
2023/06/15 09:29:02;;;;;;;;;;;22.70;80.80;;;;;;5058476;28;19916;-75
2023/06/15 09:31:31;;;;;;;;;;;23.00;80.40;;;;;;5063510;28;19916;-75
2023/06/15 09:34:03;;;;;;;;;;;23.20;80.00;;;;;;5056480;28;19948;-75
2023/06/15 09:36:33;;;;;;;;;;;23.40;78.80;;;;;;5043188;28;19918;-74
2023/06/15 09:38:59;;;;;;;;;;;23.40;79.10;;;;;;5058394;28;20395;-75
2023/06/15 09:41:25;;;;;;;;;;;23.00;77.70;;;;;;5060330;28;19908;-75
2023/06/15 09:43:51;;;;;;;;;;;23.00;79.90;;;;;;5058904;28;19920;-75
2023/06/15 09:46:18;;;;;;;;;;;22.80;80.30;;;;;;5054218;28;20426;-76
2023/06/15 09:48:44;;;;;;;;;;;22.40;81.40;;;;;;5059385;28;19940;-74
2023/06/15 09:51:10;;;;;;;;;;;22.60;82.40;;;;;;5058022;28;19990;-75
2023/06/15 09:53:37;;;;;;;;;;;22.60;82.10;;;;;;5039285;28;19927;-74
2023/06/15 09:56:02;;;;;;;;;;;23.10;80.70;;;;;;5054355;28;19919;-74
2023/06/15 09:58:28;;;;;;;;;;;24.00;78.20;;;;;;5037936;28;19920;-75
2023/06/15 10:00:57;;;;;;;;;;;24.10;76.80;;;;;;5052049;28;19908;-74
2023/06/15 10:03:23;;;;;;;;;;;23.70;77.70;;;;;;5062709;28;19912;-75
2023/06/15 10:05:52;;;;;;;;;;;22.70;79.60;;;;;;5057768;28;20406;-75
2023/06/15 10:08:19;;;;;;;;;;;22.80;79.90;;;;;;5054471;28;19912;-75
2023/06/15 10:10:45;;;;;;;;;;;22.50;80.50;;;;;;5062236;28;20291;-74
2023/06/15 10:13:20;;;;;;;;;;;22.20;81.40;;;;;;5061530;28;20446;-74
2023/06/15 10:15:51;;;;;;;;;;;22.30;82.20;;;;;;5057173;28;19908;-74
2023/06/15 10:18:18;;;;;;;;;;;22.20;82.50;;;;;;5053910;28;19916;-76
2023/06/15 10:20:44;;;;;;;;;;;22.90;81.20;;;;;;5054041;28;19904;-74
2023/06/15 10:23:13;;;;;;;;;;;23.50;81.00;;;;;;5052741;28;19934;-74
2023/06/15 10:25:41;;;;;;;;;;;23.70;79.30;;;;;;5055805;28;19912;-75
2023/06/15 10:28:11;;;;;;;;;;;23.60;78.50;;;;;;5061208;28;20622;-74
2023/06/15 10:30:52;;;;;;;;;;;23.90;78.80;;;;;;5061403;28;19915;-75
2023/06/15 10:33:30;;;;;;;;;;;24.10;77.70;;;;;;5060950;28;20489;-75
2023/06/15 10:35:56;;;;;;;;;;;24.20;78.20;;;;;;5061166;28;20457;-74
2023/06/15 10:38:21;;;;;;;;;;;24.30;77.40;;;;;;5059228;28;19912;-76
2023/06/15 10:40:48;;;;;;;;;;;24.10;77.60;;;;;;5062414;28;19944;-75
2023/06/15 10:43:18;;;;;;;;;;;24.90;75.20;;;;;;5054730;28;19979;-75
2023/06/15 10:45:43;;;;;;;;;;;24.80;74.90;;;;;;5040175;28;19934;-75
2023/06/15 10:48:19;;;;;;;;;;;23.80;75.80;;;;;;5062107;28;20355;-74
2023/06/15 10:50:50;;;;;;;;;;;24.00;75.60;;;;;;5053001;28;19912;-74
2023/06/15 10:53:23;;;;;;;;;;;24.50;75.30;;;;;;5036442;28;20463;-75
2023/06/15 10:55:51;;;;;;;;;;;23.90;74.70;;;;;;5058420;28;19919;-75
2023/06/15 10:58:17;;;;;;;;;;;23.60;76.70;;;;;;5058668;28;19966;-75
2023/06/15 11:00:49;;;;;;;;;;;23.40;76.80;;;;;;5062179;28;20346;-74
2023/06/15 11:03:24;;;;;;;;;;;23.50;78.20;;;;;;5061502;28;20693;-75
2023/06/15 11:06:11;;;;;;;;;;;23.80;76.90;;;;;;5055622;28;19924;-76
2023/06/15 11:08:42;;;;;;;;;;;24.60;75.70;;;;;;5037529;28;19908;-75
2023/06/15 11:11:09;;;;;;;;;;;25.00;74.60;;;;;;5055953;28;19962;-74
2023/06/15 11:13:34;;;;;;;;;;;26.10;72.80;;;;;;5051364;28;19967;-75
2023/06/15 11:16:07;;;;;;;;;;;25.90;71.50;;;;;;5045808;28;20007;-74
2023/06/15 11:18:33;;;;;;;;;;;26.50;71.90;;;;;;5051486;28;19908;-75
2023/06/15 11:20:59;;;;;;;;;;;26.10;70.70;;;;;;5051488;28;20436;-75
2023/06/15 11:23:29;;;;;;;;;;;25.10;70.80;;;;;;5057390;28;19920;-74
2023/06/15 11:25:55;;;;;;;;;;;25.50;72.50;;;;;;5052212;28;19950;-75
2023/06/15 11:28:24;;;;;;;;;;;25.40;73.50;;;;;;5060160;28;20363;-75
2023/06/15 11:30:50;;;;;;;;;;;25.00;73.80;;;;;;5060979;28;20260;-74
2023/06/15 11:33:24;;;;;;;;;;;24.70;75.70;;;;;;5060921;28;20434;-75
2023/06/15 11:35:50;;;;;;;;;;;24.60;75.10;;;;;;5061744;28;19908;-75
2023/06/15 11:38:15;;;;;;;;;;;24.70;74.20;;;;;;5057663;28;19915;-75
2023/06/15 11:40:41;;;;;;;;;;;25.40;74.90;;;;;;5059571;28;19909;-74
2023/06/15 11:43:11;;;;;;;;;;;25.60;72.70;;;;;;5059841;28;20519;-76
2023/06/15 11:45:38;;;;;;;;;;;25.50;71.70;;;;;;5041270;28;20720;-75
2023/06/15 11:48:14;;;;;;;;;;;25.40;72.20;;;;;;5040974;28;19955;-75
2023/06/15 11:50:43;;;;;;;;;;;25.80;70.80;;;;;;5063348;28;19987;-74
2023/06/15 11:53:13;;;;;;;;;;;26.20;70.90;;;;;;5060816;28;19921;-75
2023/06/15 11:55:45;;;;;;;;;;;26.20;69.00;;;;;;5054477;28;19960;-75
2023/06/15 11:58:11;;;;;;;;;;;25.40;72.20;;;;;;5057112;28;19919;-76
2023/06/15 12:00:37;;;;;;;;;;;25.40;69.70;;;;;;5060643;28;19909;-76
2023/06/15 12:03:11;;;;;;;;;;;25.40;71.30;;;;;;5043057;28;19912;-74
2023/06/15 12:05:37;;;;;;;;;;;25.40;72.00;;;;;;5064092;28;19912;-75
2023/06/15 12:08:03;;;;;;;;;;;25.60;73.40;;;;;;5055711;28;20329;-74
2023/06/15 12:10:29;;;;;;;;;;;26.00;72.40;;;;;;5059280;28;19905;-74
2023/06/15 12:12:57;;;;;;;;;;;25.70;71.10;;;;;;5059362;28;20366;-74
2023/06/15 12:15:24;;;;;;;;;;;25.00;72.40;;;;;;5057658;28;19912;-74
2023/06/15 12:17:50;;;;;;;;;;;24.20;75.50;;;;;;5057362;28;20298;-74
2023/06/15 12:20:15;;;;;;;;;;;24.60;74.90;;;;;;5056084;28;19912;-74
2023/06/15 12:22:42;;;;;;;;;;;24.70;75.10;;;;;;5057248;28;19952;-75
2023/06/15 12:25:08;;;;;;;;;;;25.00;74.80;;;;;;5061888;28;19920;-75
2023/06/15 12:27:40;;;;;;;;;;;25.10;74.50;;;;;;5062989;28;20163;-75
2023/06/15 12:30:09;;;;;;;;;;;25.10;76.70;;;;;;5063351;28;19912;-75
2023/06/15 12:32:35;;;;;;;;;;;24.50;74.40;;;;;;5069069;28;19908;-74
2023/06/15 12:35:01;;;;;;;;;;;24.80;75.50;;;;;;5062576;28;19908;-73
2023/06/15 12:37:30;;;;;;;;;;;24.90;77.10;;;;;;5062390;28;19931;-75
2023/06/15 12:39:56;;;;;;;;;;;24.70;76.30;;;;;;5064008;28;19908;-74
2023/06/15 12:42:22;;;;;;;;;;;24.20;74.80;;;;;;5064113;28;20335;-74
2023/06/15 12:44:47;;;;;;;;;;;24.70;75.10;;;;;;5063961;28;19924;-75
2023/06/15 12:47:13;;;;;;;;;;;25.00;76.10;;;;;;5057636;28;19916;-76
2023/06/15 12:49:39;;;;;;;;;;;25.30;75.20;;;;;;5044562;28;19923;-74
2023/06/15 12:52:04;;;;;;;;;;;25.10;74.90;;;;;;5061148;28;19909;-76
2023/06/15 12:54:30;;;;;;;;;;;24.80;74.30;;;;;;5061695;28;19956;-75
2023/06/15 12:56:55;;;;;;;;;;;24.30;76.20;;;;;;5049628;28;19912;-74
2023/06/15 12:59:21;;;;;;;;;;;24.10;76.60;;;;;;5060800;28;19931;-73
2023/06/15 13:01:47;;;;;;;;;;;24.10;77.10;;;;;;5058929;28;19995;-75
2023/06/15 13:04:12;;;;;;;;;;;24.40;75.70;;;;;;5052723;28;19927;-73
2023/06/15 13:06:38;;;;;;;;;;;24.70;75.20;;;;;;5055571;28;20383;-75
2023/06/15 13:09:04;;;;;;;;;;;25.20;74.70;;;;;;5061606;28;19994;-73
2023/06/15 13:11:29;;;;;;;;;;;25.30;73.50;;;;;;5061320;28;20287;-74
2023/06/15 13:13:55;;;;;;;;;;;24.90;73.20;;;;;;5054543;28;20528;-75
2023/06/15 13:16:20;;;;;;;;;;;25.00;73.30;;;;;;5060130;28;19915;-74
2023/06/15 13:18:46;;;;;;;;;;;24.90;74.20;;;;;;5054289;28;19909;-74
2023/06/15 13:21:12;;;;;;;;;;;25.30;73.70;;;;;;5052144;28;20367;-75
2023/06/15 13:23:37;;;;;;;;;;;24.90;75.00;;;;;;5052978;28;20070;-75
2023/06/15 13:26:03;;;;;;;;;;;24.60;74.90;;;;;;5053756;28;20430;-74
2023/06/15 13:28:29;;;;;;;;;;;24.60;74.70;;;;;;5057712;28;20139;-76
2023/06/15 13:30:55;;;;;;;;;;;24.50;74.30;;;;;;5055045;28;20690;-74
2023/06/15 13:33:20;;;;;;;;;;;24.30;74.10;;;;;;5066674;28;19939;-74
2023/06/15 13:35:46;;;;;;;;;;;24.60;75.30;;;;;;5062079;28;20016;-75
2023/06/15 13:38:12;;;;;;;;;;;24.90;74.40;;;;;;5059689;28;19908;-75
2023/06/15 13:40:37;;;;;;;;;;;24.60;74.60;;;;;;5050621;28;19981;-75
2023/06/15 13:43:03;;;;;;;;;;;24.50;74.30;;;;;;5058625;28;19908;-74
2023/06/15 13:45:28;;;;;;;;;;;24.30;74.90;;;;;;5044057;28;19920;-74
2023/06/15 13:47:54;;;;;;;;;;;24.30;75.30;;;;;;5061873;28;20021;-74
2023/06/15 13:50:21;;;;;;;;;;;24.40;74.30;;;;;;5060490;28;20057;-75
2023/06/15 13:52:46;;;;;;;;;;;24.40;75.10;;;;;;5060377;28;19920;-75
2023/06/15 13:55:12;;;;;;;;;;;24.10;76.70;;;;;;5052864;28;19946;-76
2023/06/15 13:57:38;;;;;;;;;;;23.80;77.20;;;;;;5055609;28;20347;-75
2023/06/15 14:00:04;;;;;;;;;;;23.90;76.80;;;;;;5062153;28;19912;-74
2023/06/15 14:02:30;;;;;;;;;;;23.90;77.30;;;;;;5054622;28;19913;-75
2023/06/15 14:04:55;;;;;;;;;;;24.00;77.00;;;;;;5056628;28;20027;-75
2023/06/15 14:07:21;;;;;;;;;;;23.70;78.20;;;;;;5054911;28;19938;-74
2023/06/15 14:09:47;;;;;;;;;;;24.00;75.90;;;;;;5062756;28;20377;-75
2023/06/15 14:12:13;;;;;;;;;;;24.40;77.60;;;;;;5062320;28;19908;-74